| time (UTC) | temp C | wind direction | speed KPH | gust KPH | rain 1hr cm | rain 24hr cm | rain mn cm | humidity % | barometer mb |
| 20260504081546 | 2 | 0 | 0.0 | 0.0 | 0.00 | 0.38 | 0.00 | 94 | 1004.4 |
| 20260504044605 | 5 | 0 | 0.0 | 0.0 | 0.00 | 0.38 | 0.38 | 93 | 1006.0 |
| 20260504043052 | 6 | 0 | 0.0 | 0.0 | 0.00 | 0.38 | 0.38 | 93 | 1006.1 |
| 20260504041548 | 6 | 0 | 0.0 | 0.0 | 0.00 | 0.38 | 0.38 | 93 | 1006.0 |
| 20260504040104 | 6 | 0 | 0.0 | 0.0 | 0.00 | 0.38 | 0.38 | 92 | 1006.0 |
| 20260504034610 | 6 | 0 | 0.0 | 0.0 | 0.00 | 0.38 | 0.38 | 92 | 1006.0 |
| 20260504033048 | 6 | 0 | 0.0 | 0.0 | 0.00 | 0.38 | 0.38 | 92 | 1006.1 |
| 20260504031546 | 7 | 0 | 0.0 | 0.0 | 0.00 | 0.38 | 0.38 | 91 | 1006.1 |
| 20260504030104 | 7 | 0 | 0.0 | 0.0 | 0.00 | 0.38 | 0.38 | 91 | 1006.1 |
| 20260504024554 | 8 | 0 | 0.0 | 0.0 | 0.00 | 0.38 | 0.38 | 90 | 1006.0 |
| 20260504023049 | 8 | 0 | 0.0 | 0.0 | 0.00 | 0.38 | 0.38 | 90 | 1005.9 |
| 20260504021550 | 9 | 0 | 0.0 | 0.0 | 0.00 | 0.38 | 0.38 | 89 | 1005.9 |
| 20260504020045 | 10 | 0 | 0.0 | 0.0 | 0.00 | 0.38 | 0.38 | 88 | 1005.7 |
| 20260504014545 | 11 | 0 | 0.0 | 1.6 | 0.00 | 0.38 | 0.38 | 85 | 1005.4 |
| 20260504013050 | 12 | 0 | 0.0 | 3.2 | 0.00 | 0.38 | 0.38 | 80 | 1005.2 |
| 20260504011547 | 14 | 0 | 0.0 | 3.2 | 0.00 | 0.38 | 0.38 | 76 | 1005.0 |
| 20260504010047 | 16 | 0 | 0.0 | 1.6 | 0.00 | 0.38 | 0.38 | 71 | 1004.8 |
| 20260504004547 | 17 | 0 | 0.0 | 1.6 | 0.00 | 0.38 | 0.38 | 66 | 1004.6 |
| 20260504003044 | 19 | 108 | 0.0 | 3.2 | 0.00 | 0.38 | 0.38 | 57 | 1004.5 |
| 20260504001558 | 20 | 49 | 1.6 | 9.7 | 0.00 | 0.38 | 0.38 | 51 | 1004.6 |
| 20260504000057 | 22 | 128 | 1.6 | 11.3 | 0.00 | 0.38 | 0.38 | 39 | 1004.6 |
| 20260503234547 | 22 | 333 | 3.2 | 9.7 | 0.00 | 0.38 | 0.38 | 41 | 1004.6 |
| 20260503233046 | 22 | 180 | 4.8 | 12.9 | 0.00 | 0.38 | 0.38 | 41 | 1004.6 |
| 20260503231553 | 22 | 153 | 3.2 | 12.9 | 0.00 | 0.38 | 0.38 | 43 | 1004.8 |
| 20260503230045 | 22 | 328 | 1.6 | 11.3 | 0.00 | 0.38 | 0.38 | 42 | 1004.7 |
| 20260503224548 | 22 | 147 | 1.6 | 9.7 | 0.00 | 0.38 | 0.38 | 44 | 1004.8 |
| 20260503223048 | 22 | 245 | 3.2 | 12.9 | 0.00 | 0.38 | 0.38 | 43 | 1005.1 |
| 20260503221548 | 22 | 235 | 3.2 | 16.1 | 0.00 | 0.38 | 0.38 | 44 | 1005.1 |
| 20260503220049 | 22 | 168 | 4.8 | 12.9 | 0.00 | 0.38 | 0.38 | 47 | 1005.2 |
| 20260503214543 | 22 | 170 | 4.8 | 11.3 | 0.00 | 0.38 | 0.38 | 44 | 1005.2 |
| 20260503213048 | 21 | 59 | 8.0 | 17.7 | 0.00 | 0.38 | 0.38 | 44 | 1005.3 |
| 20260503211554 | 22 | 327 | 4.8 | 14.5 | 0.00 | 0.38 | 0.38 | 47 | 1005.5 |
| 20260503210047 | 21 | 348 | 6.4 | 16.1 | 0.00 | 0.38 | 0.38 | 46 | 1005.7 |
| 20260503204557 | 21 | 356 | 3.2 | 14.5 | 0.00 | 0.38 | 0.38 | 47 | 1005.8 |
| 20260503203051 | 21 | 267 | 4.8 | 16.1 | 0.00 | 0.38 | 0.38 | 48 | 1006.0 |
| 20260503201545 | 21 | 268 | 6.4 | 16.1 | 0.00 | 0.38 | 0.38 | 47 | 1006.2 |
| 20260503200052 | 20 | 94 | 6.4 | 19.3 | 0.00 | 0.38 | 0.38 | 51 | 1006.5 |
| 20260503194548 | 20 | 142 | 6.4 | 17.7 | 0.00 | 0.38 | 0.38 | 52 | 1006.6 |
| 20260503193100 | 20 | 123 | 11.3 | 25.7 | 0.00 | 0.38 | 0.38 | 48 | 1007.0 |
| 20260503191550 | 20 | 176 | 3.2 | 16.1 | 0.00 | 0.38 | 0.38 | 52 | 1007.3 |
| 20260503190105 | 18 | 232 | 11.3 | 22.5 | 0.00 | 0.38 | 0.38 | 51 | 1007.6 |
| 20260503184552 | 19 | 188 | 6.4 | 19.3 | 0.00 | 0.38 | 0.38 | 52 | 1007.7 |
| 20260503183058 | 18 | 275 | 8.0 | 20.9 | 0.00 | 0.38 | 0.38 | 53 | 1007.7 |
| 20260503181548 | 18 | 189 | 6.4 | 16.1 | 0.00 | 0.38 | 0.38 | 56 | 1007.9 |
| 20260503180055 | 17 | 304 | 8.0 | 29.0 | 0.00 | 0.38 | 0.38 | 57 | 1008.1 |
| 20260503174546 | 17 | 164 | 8.0 | 25.7 | 0.00 | 0.38 | 0.38 | 55 | 1008.5 |
| 20260503173108 | 17 | 169 | 8.0 | 24.1 | 0.00 | 0.38 | 0.38 | 53 | 1008.7 |
| 20260503171552 | 17 | 222 | 8.0 | 19.3 | 0.00 | 0.38 | 0.38 | 54 | 1008.6 |
| 20260503140104 | 7 | 0 | 0.0 | 0.0 | 0.10 | 0.38 | 0.38 | 92 | 1012.0 |